Main page
METAR-TAF:

METAR-TAF

Airports :

Wattay International Airport

Vientiane, Laos

latitude: 17-57N, longitude: 102-34E, elevation: 171 m

Current weather observation

The report was made 30 minutes ago, at 01:00 UTC
Wind 2 kt from the Southwest
Temperature 29°C
Humidity 70%
Pressure 1007 hPa
Visibility: 5000 m
mist

METAR: VLVT 190100Z 22002KT 5000 BR NSC 29/23 Q1007 NOSIG

Time: 08:30 (01:30 UTC)

Forecast

The report was made 2 hours and 30 minutes ago, at 23:00 UTC
Forecast valid from 19 at 00 UTC to 19 at 24 UTC
Wind 6 kt from the West/Southwest
Visibility: 8000 m
Scattered clouds at a height of 2000 ft
Scattered clouds at a height of 5000 ft

TAF: VLVT 182300Z 1900/1924 24006KT 8000 SCT020 SCT050

Weather observations and forecasts of more than 4000 airports (METAR and TAF reports).

The available stations are represented by yellow and red dots on the map.

Hover mouse over dot to see the name of the station.

Then click to see weather observations and forecasts.

To change the map : click on the green buttons with a black cross to zoom in, on the green button with a dash to zoom out, or on the green arrows for adjacent maps.


METAR-TAF: